Time;durP1;ratioP1;P1;durP2;ratioP2;P2;SDS_P1;SDS_P2;PMS_P1;PMS_P2;Temp;Humidity;BMP_temperature;BMP_pressure;BME280_temperature;BME280_humidity;BME280_pressure;Samples;Min_cycle;Max_cycle;Signal;HPM_P1;HPM_P2
2023/04/17 00:01:04;;;;;;;0.40;0.40;;;;;;;11.54;100.00;98754.00;5019133;28;20267;-62
2023/04/17 00:03:31;;;;;;;0.60;0.60;;;;;;;11.57;100.00;98752.13;5022725;28;20287;-62
2023/04/17 00:05:58;;;;;;;0.50;0.50;;;;;;;11.58;100.00;98753.81;5029424;28;20197;-61
2023/04/17 00:08:25;;;;;;;0.43;0.43;;;;;;;11.52;100.00;98754.09;5031131;28;20205;-61
2023/04/17 00:10:51;;;;;;;0.70;0.70;;;;;;;11.43;100.00;98745.97;5031176;28;20209;-61
2023/04/17 00:13:18;;;;;;;0.57;0.57;;;;;;;11.47;100.00;98753.44;5031312;28;21818;-61
2023/04/17 00:15:45;;;;;;;0.50;0.50;;;;;;;11.53;100.00;98749.78;5031035;28;20205;-61
2023/04/17 00:18:13;;;;;;;0.50;0.50;;;;;;;11.57;100.00;98748.72;5031039;28;20201;-61
2023/04/17 00:20:40;;;;;;;0.50;0.50;;;;;;;11.68;100.00;98753.41;5031107;28;20523;-61
2023/04/17 00:23:19;;;;;;;0.57;0.57;;;;;;;11.70;100.00;98751.56;5031221;28;20662;-62
2023/04/17 00:25:45;;;;;;;0.50;0.50;;;;;;;11.70;100.00;98754.16;5029581;28;20193;-61
2023/04/17 00:28:12;;;;;;;0.70;0.70;;;;;;;11.73;100.00;98761.78;5030751;28;20744;-61
2023/04/17 00:30:39;;;;;;;1.07;1.07;;;;;;;11.76;100.00;98761.63;5030842;28;20202;-61
2023/04/17 00:33:06;;;;;;;0.50;0.50;;;;;;;11.78;100.00;98764.94;5031100;28;20259;-61
2023/04/17 00:35:34;;;;;;;0.43;0.43;;;;;;;11.85;100.00;98762.03;5030940;28;20204;-61
2023/04/17 00:38:00;;;;;;;0.50;0.50;;;;;;;11.91;100.00;98763.50;5030755;28;20217;-61
2023/04/17 00:40:27;;;;;;;0.57;0.57;;;;;;;11.99;100.00;98766.53;5034705;28;20198;-62
2023/04/17 00:43:00;;;;;;;0.40;0.40;;;;;;;11.87;100.00;98764.53;5034893;28;20209;-60
2023/04/17 00:45:27;;;;;;;0.57;0.57;;;;;;;11.88;100.00;98766.19;5034430;28;20213;-61
2023/04/17 00:47:54;;;;;;;0.70;0.70;;;;;;;11.77;100.00;98740.16;5034305;28;20708;-61
2023/04/17 00:50:22;;;;;;;0.80;0.80;;;;;;;11.96;100.00;98762.38;5034608;28;20570;-61
2023/04/17 00:52:51;;;;;;;0.50;0.50;;;;;;;12.03;100.00;98760.34;5034385;28;20205;-61
2023/04/17 00:55:17;;;;;;;0.50;0.50;;;;;;;12.05;100.00;98771.41;5034618;28;20208;-61
2023/04/17 00:57:44;;;;;;;0.47;0.47;;;;;;;12.02;100.00;98763.81;5034641;28;20208;-62
2023/04/17 01:00:12;;;;;;;0.43;0.43;;;;;;;12.06;100.00;98765.34;5034537;28;20194;-61
2023/04/17 01:02:39;;;;;;;0.47;0.47;;;;;;;12.07;100.00;98767.03;5022379;28;20236;-61
2023/04/17 01:05:06;;;;;;;0.50;0.50;;;;;;;12.11;100.00;98763.41;5028159;28;20706;-61
2023/04/17 01:07:33;;;;;;;0.50;0.50;;;;;;;12.16;100.00;98773.47;5027563;28;20209;-61
2023/04/17 01:10:02;;;;;;;0.60;0.60;;;;;;;12.17;100.00;98768.28;5024443;28;20283;-61
2023/04/17 01:12:30;;;;;;;0.50;0.50;;;;;;;12.12;100.00;98770.19;5024135;28;20232;-62
2023/04/17 01:14:57;;;;;;;0.50;0.50;;;;;;;12.15;100.00;98764.91;5023416;28;20646;-61
2023/04/17 01:17:26;;;;;;;0.50;0.50;;;;;;;12.13;100.00;98766.75;5023832;28;20197;-61
2023/04/17 01:19:53;;;;;;;0.60;0.60;;;;;;;12.05;100.00;98763.72;5030093;28;20252;-61
2023/04/17 01:22:20;;;;;;;0.53;0.53;;;;;;;12.06;100.00;98768.75;5021688;28;20205;-61
2023/04/17 01:24:49;;;;;;;0.40;0.40;;;;;;;12.10;100.00;98766.88;5024748;28;20228;-62
2023/04/17 01:27:15;;;;;;;0.40;0.40;;;;;;;12.07;100.00;98757.59;5025709;28;20198;-61
2023/04/17 01:29:43;;;;;;;0.50;0.50;;;;;;;12.04;100.00;98742.31;5024109;28;20209;-61
2023/04/17 01:32:17;;;;;;;0.30;0.30;;;;;;;12.17;100.00;98758.00;5022437;28;20202;-61
2023/04/17 01:34:44;;;;;;;0.40;0.40;;;;;;;12.17;100.00;98760.56;5024000;28;20196;-60
2023/04/17 01:37:11;;;;;;;0.50;0.50;;;;;;;12.17;100.00;98767.44;5023930;28;20256;-61
2023/04/17 01:39:38;;;;;;;0.50;0.50;;;;;;;12.16;100.00;98766.59;5022857;28;20264;-61
2023/04/17 01:42:06;;;;;;;0.50;0.50;;;;;;;12.14;100.00;98759.88;5028681;28;20201;-61
2023/04/17 01:44:33;;;;;;;0.67;0.67;;;;;;;12.13;100.00;98761.59;5022893;28;20253;-62
2023/04/17 01:47:00;;;;;;;0.60;0.60;;;;;;;12.15;100.00;98759.78;5023264;28;20197;-61
2023/04/17 01:49:27;;;;;;;0.50;0.50;;;;;;;12.17;100.00;98767.44;5022539;28;20217;-61
2023/04/17 01:51:53;;;;;;;0.50;0.50;;;;;;;12.19;100.00;98766.44;5025440;28;20205;-62
2023/04/17 01:54:21;;;;;;;0.57;0.57;;;;;;;12.18;100.00;98754.50;5025509;28;20694;-61
2023/04/17 01:56:48;;;;;;;0.90;0.90;;;;;;;12.13;100.00;98735.06;5024094;28;20252;-61
2023/04/17 01:59:16;;;;;;;0.50;0.50;;;;;;;12.23;100.00;98747.41;5020221;28;20202;-62
2023/04/17 02:01:43;;;;;;;0.47;0.47;;;;;;;12.18;100.00;98739.09;5024846;28;20198;-61
2023/04/17 02:04:09;;;;;;;0.60;0.60;;;;;;;12.17;100.00;98746.88;5027052;28;20221;-61
2023/04/17 02:06:36;;;;;;;0.60;0.60;;;;;;;12.15;100.00;98748.69;5021602;28;20206;-61
2023/04/17 02:09:03;;;;;;;1.10;1.10;;;;;;;12.10;100.00;98746.31;5023095;28;20201;-61
2023/04/17 02:11:30;;;;;;;0.50;0.50;;;;;;;12.06;100.00;98750.78;5022918;28;20749;-60
2023/04/17 02:13:57;;;;;;;0.50;0.50;;;;;;;11.91;100.00;98745.53;5027682;28;20205;-61
2023/04/17 02:16:25;;;;;;;0.60;0.60;;;;;;;11.89;100.00;98747.34;5022130;28;20202;-60
2023/04/17 02:18:53;;;;;;;0.43;0.43;;;;;;;11.69;100.00;98714.00;5020361;28;20229;-61
2023/04/17 02:21:20;;;;;;;0.60;0.60;;;;;;;11.85;100.00;98732.97;5027547;28;20196;-62
2023/04/17 02:23:47;;;;;;;0.50;0.50;;;;;;;11.86;100.00;98740.59;5021687;28;20634;-60
2023/04/17 02:26:13;;;;;;;0.50;0.50;;;;;;;11.80;100.00;98740.03;5023731;28;20218;-61
2023/04/17 02:28:43;;;;;;;0.70;0.70;;;;;;;11.80;100.00;98742.59;5029961;28;20645;-61
2023/04/17 02:31:09;;;;;;;0.50;0.50;;;;;;;11.81;100.00;98739.13;5022320;28;20209;-61
2023/04/17 02:33:38;;;;;;;0.50;0.50;;;;;;;11.78;100.00;98736.72;5022328;28;20275;-61
2023/04/17 02:36:06;;;;;;;0.60;0.60;;;;;;;11.68;100.00;98728.56;5027394;28;20205;-60
2023/04/17 02:38:33;;;;;;;0.50;0.50;;;;;;;11.73;100.00;98738.66;5029596;28;20193;-61
2023/04/17 02:41:00;;;;;;;0.60;0.60;;;;;;;11.69;100.00;98742.22;5026826;28;20217;-61
2023/04/17 02:43:26;;;;;;;0.47;0.47;;;;;;;11.59;100.00;98737.50;5022941;28;20209;-61
2023/04/17 02:45:53;;;;;;;0.50;0.50;;;;;;;11.69;100.00;98755.06;5025438;28;20229;-61
2023/04/17 02:48:20;;;;;;;0.47;0.47;;;;;;;11.70;100.00;98756.72;5021914;28;20688;-61
2023/04/17 02:50:48;;;;;;;0.50;0.50;;;;;;;11.62;100.00;98751.09;5018909;28;20194;-61
2023/04/17 02:53:15;;;;;;;0.40;0.40;;;;;;;11.58;100.00;98764.06;5014904;28;20206;-61
2023/04/17 02:55:42;;;;;;;0.60;0.60;;;;;;;11.51;100.00;98760.09;5026667;28;20304;-61
2023/04/17 02:58:08;;;;;;;0.40;0.40;;;;;;;11.45;100.00;98757.81;5022072;28;20563;-62
2023/04/17 03:00:35;;;;;;;0.50;0.50;;;;;;;11.45;100.00;98746.72;5028264;28;20201;-61
2023/04/17 03:03:02;;;;;;;0.60;0.60;;;;;;;11.47;100.00;98745.75;5025109;28;20206;-61
2023/04/17 03:05:30;;;;;;;0.63;0.63;;;;;;;11.49;100.00;98748.25;5019775;28;20308;-61
2023/04/17 03:07:59;;;;;;;0.53;0.53;;;;;;;11.57;100.00;98752.13;5026192;28;20232;-62
2023/04/17 03:10:26;;;;;;;0.50;0.50;;;;;;;11.46;100.00;98728.69;5023401;28;20210;-61
2023/04/17 03:12:53;;;;;;;0.53;0.53;;;;;;;11.59;100.00;98745.22;5027705;28;20193;-61
2023/04/17 03:15:19;;;;;;;0.50;0.50;;;;;;;11.59;100.00;98745.22;5029794;28;20193;-61
2023/04/17 03:17:47;;;;;;;0.47;0.47;;;;;;;11.60;100.00;98746.03;5017351;28;20271;-61
2023/04/17 03:20:14;;;;;;;0.60;0.60;;;;;;;11.59;100.00;98740.09;5027539;28;20198;-61
2023/04/17 03:22:41;;;;;;;0.47;0.47;;;;;;;11.61;100.00;98740.00;5021341;28;20206;-61
2023/04/17 03:25:10;;;;;;;0.50;0.50;;;;;;;11.64;100.00;98733.88;5021817;28;20659;-61
2023/04/17 03:27:37;;;;;;;0.50;0.50;;;;;;;11.65;100.00;98731.25;5020715;28;20213;-61
2023/04/17 03:30:06;;;;;;;0.70;0.70;;;;;;;11.67;100.00;98728.59;5025343;28;20209;-60
2023/04/17 03:32:33;;;;;;;0.50;0.50;;;;;;;11.70;100.00;98746.44;5020400;28;20257;-62
2023/04/17 03:35:00;;;;;;;0.40;0.40;;;;;;;11.68;100.00;98738.81;5022528;28;20198;-61
2023/04/17 03:37:26;;;;;;;0.70;0.70;;;;;;;11.71;100.00;98732.75;5024968;28;20289;-61
2023/04/17 03:39:54;;;;;;;0.50;0.50;;;;;;;11.71;100.00;98732.75;5024169;28;20209;-60
2023/04/17 03:42:22;;;;;;;0.40;0.40;;;;;;;11.68;100.00;98732.84;5018880;28;20671;-61
2023/04/17 03:44:49;;;;;;;0.47;0.47;;;;;;;11.65;100.00;98727.88;5024793;28;20213;-60
2023/04/17 03:47:16;;;;;;;0.40;0.40;;;;;;;11.63;100.00;98739.94;5019284;28;20296;-61
2023/04/17 03:49:43;;;;;;;0.50;0.50;;;;;;;11.57;100.00;98741.88;5025614;28;20205;-61
2023/04/17 03:52:09;;;;;;;0.50;0.50;;;;;;;11.56;100.00;98740.22;5022798;28;20212;-60
2023/04/17 03:54:36;;;;;;;0.60;0.60;;;;;;;11.59;100.00;98750.34;5017638;28;20201;-61
2023/04/17 03:57:03;;;;;;;0.50;0.50;;;;;;;11.58;100.00;98753.81;5022277;28;20198;-61
2023/04/17 03:59:32;;;;;;;0.83;0.83;;;;;;;11.60;100.00;98758.84;5017928;28;20205;-61
2023/04/17 04:01:59;;;;;;;0.60;0.60;;;;;;;11.54;100.00;98754.84;5024746;28;20690;-61
2023/04/17 04:04:26;;;;;;;0.50;0.50;;;;;;;11.57;100.00;98756.44;5025168;28;20241;-61
2023/04/17 04:06:56;;;;;;;0.40;0.40;;;;;;;11.58;100.00;98753.81;5025749;28;20247;-61
2023/04/17 04:09:24;;;;;;;0.60;0.60;;;;;;;11.58;100.00;98758.94;5013717;28;20198;-61
2023/04/17 04:11:50;;;;;;;0.40;0.40;;;;;;;11.56;100.00;98760.75;5023339;28;20625;-60
2023/04/17 04:14:17;;;;;;;0.50;0.50;;;;;;;11.54;100.00;98756.56;5026636;28;20202;-60
2023/04/17 04:16:45;;;;;;;0.50;0.50;;;;;;;11.54;100.00;98762.53;5024584;28;20201;-61
2023/04/17 04:19:12;;;;;;;0.40;0.40;;;;;;;11.59;100.00;98776.03;5028119;28;20259;-61
2023/04/17 04:21:41;;;;;;;0.90;0.90;;;;;;;11.61;100.00;98768.25;5032966;28;20209;-61
2023/04/17 04:24:08;;;;;;;0.40;0.40;;;;;;;11.53;100.00;98760.88;5033929;28;20201;-61
2023/04/17 04:26:35;;;;;;;0.60;0.60;;;;;;;11.54;100.00;98772.81;5026959;28;20221;-61
2023/04/17 04:29:02;;;;;;;0.50;0.50;;;;;;;11.52;100.00;98763.50;5031014;28;20208;-60
2023/04/17 04:31:29;;;;;;;0.80;0.80;;;;;;;11.59;100.00;98780.31;5028635;28;20209;-61
2023/04/17 04:33:58;;;;;;;0.50;0.50;;;;;;;11.59;100.00;98781.16;5029586;28;20206;-60
2023/04/17 04:36:28;;;;;;;0.80;0.80;;;;;;;11.56;100.00;98786.44;5026816;28;20197;-61
2023/04/17 04:38:58;;;;;;;0.50;0.50;;;;;;;11.63;100.00;98786.16;5029327;28;20212;-61
2023/04/17 04:41:25;;;;;;;0.90;0.90;;;;;;;11.67;100.00;98785.09;5026437;28;20275;-63
2023/04/17 04:43:52;;;;;;;0.53;0.53;;;;;;;11.70;100.00;98783.25;5028906;28;20205;-62
2023/04/17 04:46:19;;;;;;;0.60;0.60;;;;;;;11.74;100.00;98789.94;5029327;28;20593;-60
2023/04/17 04:48:46;;;;;;;0.50;0.50;;;;;;;11.74;100.00;98783.97;5024826;28;20213;-60
2023/04/17 04:51:14;;;;;;;0.40;0.40;;;;;;;11.82;100.00;98792.16;5029360;28;20607;-61
2023/04/17 04:53:41;;;;;;;0.53;0.53;;;;;;;11.81;100.00;98790.50;5028587;28;20806;-62
2023/04/17 04:56:08;;;;;;;0.70;0.70;;;;;;;11.87;100.00;98793.63;5029960;28;20640;-61
2023/04/17 04:58:37;;;;;;;0.50;0.50;;;;;;;11.92;100.00;98794.22;5028891;28;20208;-61
2023/04/17 05:01:04;;;;;;;0.67;0.67;;;;;;;11.98;100.00;98795.72;5027316;28;20205;-61
2023/04/17 05:03:31;;;;;;;0.90;0.90;;;;;;;12.07;100.00;98797.84;5028680;28;20230;-62
2023/04/17 05:05:57;;;;;;;0.60;0.60;;;;;;;12.10;100.00;98793.41;5026439;28;20745;-61
2023/04/17 05:08:25;;;;;;;0.60;0.60;;;;;;;12.20;100.00;98798.13;5029355;28;20208;-61
2023/04/17 05:10:52;;;;;;;0.50;0.50;;;;;;;12.20;100.00;98792.97;5029253;28;20678;-61
2023/04/17 05:13:19;;;;;;;0.57;0.57;;;;;;;12.19;100.00;98787.00;5030030;28;20209;-61
2023/04/17 05:15:46;;;;;;;0.83;0.83;;;;;;;12.25;100.00;98797.00;5030547;28;20194;-61
2023/04/17 05:18:12;;;;;;;0.40;0.40;;;;;;;12.31;100.00;98801.84;5025031;28;20208;-61
2023/04/17 05:20:39;;;;;;;0.70;0.70;;;;;;;12.31;100.00;98811.31;5028468;28;20205;-61
2023/04/17 05:23:06;;;;;;;0.60;0.60;;;;;;;12.34;100.00;98801.69;5022961;28;20203;-61
2023/04/17 05:25:34;;;;;;;0.30;0.30;;;;;;;12.38;100.00;98807.53;5024886;28;20218;-61
2023/04/17 05:28:01;;;;;;;0.60;0.60;;;;;;;12.42;100.00;98804.75;5024829;28;20198;-61
2023/04/17 05:30:27;;;;;;;0.70;0.70;;;;;;;12.44;100.00;98808.09;5028180;28;20209;-61
2023/04/17 05:32:54;;;;;;;0.70;0.70;;;;;;;12.42;100.00;98809.06;5018614;28;20206;-61
2023/04/17 05:35:22;;;;;;;0.40;0.40;;;;;;;12.38;100.00;98798.09;5020807;28;20201;-61
2023/04/17 05:37:48;;;;;;;0.70;0.70;;;;;;;12.38;100.00;98804.97;5026212;28;20279;-64
2023/04/17 05:40:15;;;;;;;0.47;0.47;;;;;;;12.33;100.00;98812.06;5023826;28;20205;-64
2023/04/17 05:42:43;;;;;;;0.70;0.70;;;;;;;12.36;100.00;98799.91;5026089;28;20213;-63
2023/04/17 05:45:13;;;;;;;0.53;0.53;;;;;;;12.38;100.00;98800.66;5023319;28;20604;-63
2023/04/17 05:47:40;;;;;;;0.77;0.77;;;;;;;12.27;100.00;98795.22;5024932;28;20210;-65
2023/04/17 05:50:08;;;;;;;0.53;0.53;;;;;;;12.33;100.00;98788.94;5020784;28;20205;-64
2023/04/17 05:52:35;;;;;;;0.40;0.40;;;;;;;12.49;100.00;98795.84;5027963;28;20515;-64
2023/04/17 05:55:02;;;;;;;0.60;0.60;;;;;;;12.57;100.00;98788.59;5025393;28;20201;-66
2023/04/17 05:57:29;;;;;;;0.60;0.60;;;;;;;12.72;100.00;98799.06;5018653;28;20307;-67
2023/04/17 05:59:57;;;;;;;0.70;0.70;;;;;;;12.85;100.00;98808.69;5020654;28;20205;-65
2023/04/17 06:02:24;;;;;;;0.70;0.70;;;;;;;13.01;100.00;98798.47;5025158;28;20213;-65
2023/04/17 06:04:51;;;;;;;0.40;0.40;;;;;;;13.12;100.00;98801.38;5027509;28;20706;-65
2023/04/17 06:07:18;;;;;;;0.50;0.50;;;;;;;13.24;100.00;98813.66;5029229;28;20697;-65
2023/04/17 06:09:45;;;;;;;0.60;0.60;;;;;;;13.36;100.00;98813.03;5030099;28;21274;-65
2023/04/17 06:12:14;;;;;;;0.50;0.50;;;;;;;13.52;100.00;98819.06;5031524;28;20213;-65
2023/04/17 06:14:42;;;;;;;0.50;0.50;;;;;;;13.68;100.00;98817.34;5031381;28;20263;-64
2023/04/17 06:17:11;;;;;;;0.70;0.70;;;;;;;13.71;100.00;98821.50;5031762;28;20585;-65
2023/04/17 06:19:37;;;;;;;0.50;0.50;;;;;;;13.71;100.00;98820.66;5031718;28;20209;-64
2023/04/17 06:22:04;;;;;;;0.63;0.63;;;;;;;13.70;100.00;98809.53;5032728;28;20689;-66
2023/04/17 06:24:31;;;;;;;0.50;0.50;;;;;;;13.81;100.00;98827.00;5029939;28;20206;-66
2023/04/17 06:26:59;;;;;;;0.60;0.60;;;;;;;13.82;100.00;98829.50;5030271;28;20229;-66
2023/04/17 06:29:26;;;;;;;0.57;0.57;;;;;;;13.91;100.00;98835.91;5029756;28;20201;-65
2023/04/17 06:31:53;;;;;;;0.60;0.60;;;;;;;13.76;100.00;98813.53;5030847;28;20630;-65
2023/04/17 06:34:21;;;;;;;0.40;0.40;;;;;;;13.90;100.00;98836.81;5030795;28;20208;-65
2023/04/17 06:36:48;;;;;;;1.10;1.10;;;;;;;13.79;100.00;98842.56;5028040;28;20305;-65
2023/04/17 06:39:14;;;;;;;0.43;0.43;;;;;;;13.77;100.00;98846.09;5029268;28;20213;-65
2023/04/17 06:41:41;;;;;;;0.70;0.70;;;;;;;13.77;100.00;98856.41;5027402;28;20201;-64
2023/04/17 06:44:08;;;;;;;0.40;0.40;;;;;;;13.75;100.00;98853.94;5030756;28;20207;-65
2023/04/17 06:46:35;;;;;;;0.40;0.40;;;;;;;13.73;100.00;98854.94;5029379;28;20221;-66
2023/04/17 06:49:02;;;;;;;0.53;0.53;;;;;;;13.74;100.00;98864.28;5030445;28;20208;-66
2023/04/17 06:51:30;;;;;;;0.50;0.50;;;;;;;13.80;100.00;98861.41;5030189;28;20276;-65
2023/04/17 06:53:58;;;;;;;0.50;0.50;;;;;;;13.99;100.00;98862.94;5029822;28;20208;-65
2023/04/17 06:56:25;;;;;;;0.43;0.43;;;;;;;14.05;100.00;98861.81;5027782;28;20673;-66
2023/04/17 06:58:53;;;;;;;0.60;0.60;;;;;;;13.93;100.00;98867.59;5028903;28;20636;-65
2023/04/17 07:01:20;;;;;;;0.90;0.90;;;;;;;13.88;100.00;98873.00;5029996;28;20271;-69
2023/04/17 07:03:47;;;;;;;0.50;0.50;;;;;;;13.87;100.00;98868.75;5029498;28;20229;-70
2023/04/17 07:06:13;;;;;;;0.60;0.60;;;;;;;13.89;100.00;98861.78;5015497;28;20239;-74
2023/04/17 07:08:42;;;;;;;0.40;0.40;;;;;;;13.86;100.00;98876.56;5024570;28;20208;-72
2023/04/17 07:11:08;;;;;;;0.97;0.97;;;;;;;13.85;100.00;98874.91;5020635;28;20217;-73
2023/04/17 07:13:35;;;;;;;0.60;0.60;;;;;;;13.86;100.00;98872.22;5024409;28;20229;-66
2023/04/17 07:16:02;;;;;;;0.60;0.60;;;;;;;13.90;100.00;98883.19;5021342;28;20267;-65
2023/04/17 07:18:29;;;;;;;0.40;0.40;;;;;;;13.90;100.00;98878.06;5020913;28;20597;-64
2023/04/17 07:20:56;;;;;;;0.90;0.90;;;;;;;13.96;100.00;98888.03;5026351;28;20237;-65
2023/04/17 07:23:23;;;;;;;0.80;0.80;;;;;;;14.03;100.00;98873.91;5020626;28;20547;-65
2023/04/17 07:25:52;;;;;;;0.40;0.40;;;;;;;14.14;100.00;98879.34;5020119;28;20303;-64
2023/04/17 07:28:18;;;;;;;0.40;0.40;;;;;;;14.22;100.00;98879.78;5021593;28;20205;-66
2023/04/17 07:30:45;;;;;;;0.40;0.40;;;;;;;14.24;100.00;98877.97;5027375;28;20219;-65
2023/04/17 07:33:12;;;;;;;0.50;0.50;;;;;;;14.32;100.00;98880.94;5026474;28;20563;-66
2023/04/17 07:35:40;;;;;;;0.63;0.63;;;;;;;14.06;100.00;98833.38;5025905;28;20201;-65
2023/04/17 07:38:06;;;;;;;0.60;0.60;;;;;;;14.32;100.00;98885.25;5022085;28;20200;-65
2023/04/17 07:40:35;;;;;;;0.63;0.63;;;;;;;14.33;100.00;98887.81;5019344;28;20262;-65
2023/04/17 07:43:04;;;;;;;0.50;0.50;;;;;;;14.38;100.00;98885.81;5018394;28;20198;-66
2023/04/17 07:45:32;;;;;;;0.80;0.80;;;;;;;14.33;100.00;98886.94;5026190;28;20210;-65
2023/04/17 07:47:59;;;;;;;0.60;0.60;;;;;;;14.41;100.00;98890.78;5025837;28;20225;-65
2023/04/17 07:50:25;;;;;;;0.43;0.43;;;;;;;14.49;100.00;98882.66;5018849;28;20205;-65
2023/04/17 07:52:52;;;;;;;1.17;1.17;;;;;;;14.60;100.00;98886.31;5022247;28;20208;-65
2023/04/17 07:55:19;;;;;;;0.53;0.53;;;;;;;14.71;100.00;98876.25;5024989;28;20600;-65
2023/04/17 07:57:45;;;;;;;4.23;0.80;;;;;;;14.67;100.00;98885.06;5017761;28;20260;-67
2023/04/17 08:00:15;;;;;;;0.50;0.50;;;;;;;14.66;100.00;98885.16;5019893;28;20201;-65
2023/04/17 08:02:42;;;;;;;1.57;1.47;;;;;;;14.53;100.00;98885.00;5023638;28;20201;-65
2023/04/17 08:05:09;;;;;;;0.50;0.50;;;;;;;14.48;100.00;98889.56;5022105;28;20238;-65
2023/04/17 08:07:36;;;;;;;0.60;0.60;;;;;;;14.49;100.00;98880.91;5018807;28;21373;-66
2023/04/17 08:10:04;;;;;;;0.60;0.60;;;;;;;14.56;100.00;98882.25;5016744;28;20693;-65
2023/04/17 08:12:30;;;;;;;0.53;0.53;;;;;;;14.61;100.00;98877.66;5019560;28;20613;-65
2023/04/17 08:14:57;;;;;;;0.60;0.60;;;;;;;14.57;100.00;98873.56;5023961;28;20632;-64
2023/04/17 08:17:28;;;;;;;0.93;0.93;;;;;;;14.51;100.00;98881.66;5012292;28;20560;-64
2023/04/17 08:19:56;;;;;;;1.83;0.80;;;;;;;14.51;100.00;98878.22;5012953;28;20679;-64
2023/04/17 08:22:24;;;;;;;0.60;0.60;;;;;;;14.47;100.00;98875.03;5019182;28;20236;-64
2023/04/17 08:24:56;;;;;;;0.60;0.60;;;;;;;14.58;100.00;98877.81;5021986;28;20653;-65
2023/04/17 08:27:23;;;;;;;0.53;0.53;;;;;;;14.60;100.00;98881.16;5014807;28;20211;-63
2023/04/17 08:29:50;;;;;;;1.90;1.30;;;;;;;14.66;100.00;98886.00;5025684;28;20665;-61
2023/04/17 08:32:17;;;;;;;1.13;1.13;;;;;;;14.73;100.00;98882.13;5021271;28;20208;-60
2023/04/17 08:34:45;;;;;;;0.50;0.50;;;;;;;14.69;100.00;98891.00;5019997;28;20634;-60
2023/04/17 08:37:12;;;;;;;0.50;0.50;;;;;;;14.75;100.00;98878.66;5028352;28;20283;-62
2023/04/17 08:39:39;;;;;;;0.70;0.70;;;;;;;14.79;100.00;98880.16;5021805;28;20217;-62
2023/04/17 08:42:09;;;;;;;0.70;0.70;;;;;;;14.73;100.00;98880.50;5028899;28;20289;-62
2023/04/17 08:44:36;;;;;;;0.75;0.75;;;;;;;14.68;100.00;98879.00;5017794;28;20452;-63
2023/04/17 08:47:03;;;;;;;0.50;0.50;;;;;;;14.84;100.00;98880.72;5019278;28;20446;-65
2023/04/17 08:49:33;;;;;;;0.93;0.93;;;;;;;14.90;100.00;98877.78;5020857;28;20209;-65
2023/04/17 08:52:04;;;;;;;0.50;0.50;;;;;;;14.92;100.00;98881.13;5025439;28;20203;-65
2023/04/17 08:54:32;;;;;;;0.60;0.60;;;;;;;14.95;100.00;98883.53;5022894;28;20259;-65
2023/04/17 08:57:02;;;;;;;0.53;0.53;;;;;;;14.92;100.00;98883.72;5025239;28;20275;-61
2023/04/17 08:59:29;;;;;;;0.50;0.50;;;;;;;14.90;100.00;98880.38;5028667;28;20216;-62
2023/04/17 09:02:03;;;;;;;0.70;0.70;;;;;;;14.98;100.00;98880.78;5018978;28;20653;-63
2023/04/17 09:04:37;;;;;;;0.60;0.60;;;;;;;15.09;100.00;98883.56;5028946;28;20233;-62
2023/04/17 09:07:06;;;;;;;0.57;0.57;;;;;;;15.18;100.00;98877.91;5019483;28;20220;-62
2023/04/17 09:09:47;;;;;;;0.50;0.50;;;;;;;15.19;100.00;98874.41;5028938;28;21026;-62
2023/04/17 09:12:14;;;;;;;0.60;0.60;;;;;;;15.20;100.00;98865.75;5030120;28;20257;-62
2023/04/17 09:14:41;;;;;;;0.40;0.40;;;;;;;15.32;100.00;98862.44;5023618;28;20206;-62
2023/04/17 09:17:08;;;;;;;1.20;1.20;;;;;;;15.56;100.00;98878.31;5034774;28;20202;-62
2023/04/17 09:19:35;;;;;;;0.50;0.50;;;;;;;15.71;100.00;98883.41;5029501;28;20268;-62
2023/04/17 09:22:21;;;;;;;0.70;0.70;;;;;;;15.73;100.00;98885.91;5026808;28;20640;-63
2023/04/17 09:24:48;;;;;;;1.17;1.17;;;;;;;15.74;100.00;98878.06;5026553;28;20202;-64
2023/04/17 09:27:22;;;;;;;0.70;0.70;;;;;;;15.79;100.00;98880.38;5016897;28;20244;-62
2023/04/17 09:29:57;;;;;;;0.50;0.50;;;;;;;15.85;100.00;98884.34;5034771;28;20211;-64
2023/04/17 09:32:24;;;;;;;0.60;0.60;;;;;;;15.80;100.00;98887.19;5026634;28;20200;-63
2023/04/17 09:34:52;;;;;;;0.60;0.60;;;;;;;15.91;100.00;98883.97;5022515;28;20281;-63
2023/04/17 09:37:19;;;;;;;0.70;0.70;;;;;;;16.06;100.00;98885.63;5032915;28;20558;-61
2023/04/17 09:39:58;;;;;;;0.70;0.70;;;;;;;15.97;100.00;98862.91;5031157;28;20211;-63
2023/04/17 09:42:25;;;;;;;0.50;0.50;;;;;;;16.14;100.00;98884.25;5016245;28;20585;-61
2023/04/17 09:44:53;;;;;;;0.63;0.63;;;;;;;16.15;100.00;98877.31;5025592;28;20640;-63
2023/04/17 09:47:21;;;;;;;0.40;0.40;;;;;;;16.18;100.00;98877.97;5033938;28;20224;-62
2023/04/17 09:49:51;;;;;;;0.60;0.60;;;;;;;16.24;100.00;98874.19;5032489;28;20244;-63
2023/04/17 09:52:19;;;;;;;0.97;0.87;;;;;;;16.27;100.00;98877.41;5029944;28;20623;-63
2023/04/17 09:54:48;;;;;;;0.40;0.40;;;;;;;16.33;100.00;98876.19;5022270;28;20213;-63
2023/04/17 09:57:17;;;;;;;0.30;0.30;;;;;;;16.30;100.00;98881.56;5015428;28;20201;-63
2023/04/17 09:59:46;;;;;;;0.50;0.50;;;;;;;16.35;100.00;98884.69;5032670;28;20201;-63
2023/04/17 10:02:15;;;;;;;0.97;0.97;;;;;;;16.29;100.00;98885.88;5029720;28;20206;-63
2023/04/17 10:04:42;;;;;;;0.90;0.90;;;;;;;16.18;100.00;98879.72;5015953;28;20233;-63
2023/04/17 10:07:09;;;;;;;0.57;0.57;;;;;;;16.24;100.00;98880.19;5033579;28;20217;-64
2023/04/17 10:09:36;;;;;;;0.60;0.60;;;;;;;16.34;100.00;98872.69;5033717;28;20220;-63
2023/04/17 10:12:04;;;;;;;0.57;0.57;;;;;;;16.42;100.00;98873.03;5031853;28;20206;-64
2023/04/17 10:14:36;;;;;;;0.50;0.50;;;;;;;16.52;100.00;98868.94;5033616;28;20215;-64
2023/04/17 10:17:24;;;;;;;0.50;0.50;;;;;;;16.56;100.00;98872.22;5023931;28;20221;-63
2023/04/17 10:19:51;;;;;;;0.50;0.50;;;;;;;16.62;100.00;98871.81;5032038;28;20293;-64
2023/04/17 10:22:32;;;;;;;0.43;0.43;;;;;;;16.58;100.00;98866.00;5019316;28;20212;-64
2023/04/17 10:25:22;;;;;;;0.43;0.43;;;;;;;16.63;100.00;98856.19;5026801;28;20589;-63
2023/04/17 10:27:53;;;;;;;0.70;0.70;;;;;;;16.61;100.00;98860.63;5020451;28;20217;-64
2023/04/17 10:30:22;;;;;;;0.60;0.60;;;;;;;16.50;100.00;98851.88;5026478;28;20278;-63
2023/04/17 10:33:21;;;;;;;0.43;0.43;;;;;;;16.51;100.00;98853.53;5027490;28;20198;-63
2023/04/17 10:35:48;;;;;;;0.50;0.50;;;;;;;16.62;100.00;98851.13;5013824;28;20268;-62
2023/04/17 10:38:17;;;;;;;0.50;0.50;;;;;;;16.68;100.00;98856.72;5033057;28;20208;-63
2023/04/17 10:40:44;;;;;;;0.40;0.40;;;;;;;16.57;100.00;98843.66;5025099;28;20202;-64
2023/04/17 10:43:13;;;;;;;0.57;0.57;;;;;;;16.63;100.00;98853.63;5013212;28;20741;-63
2023/04/17 10:45:55;;;;;;;0.90;0.90;;;;;;;16.69;100.00;98850.63;5027605;28;20253;-63
2023/04/17 10:48:26;;;;;;;0.50;0.50;;;;;;;16.71;100.00;98845.34;5018310;28;20304;-63
2023/04/17 10:50:53;;;;;;;0.80;0.80;;;;;;;16.62;100.00;98844.19;5013248;28;20591;-63
2023/04/17 10:53:40;;;;;;;0.40;0.40;;;;;;;16.54;100.00;98833.44;5012981;28;20202;-64
2023/04/17 10:56:07;;;;;;;0.67;0.67;;;;;;;16.39;100.00;98843.94;5018298;28;20685;-62
2023/04/17 10:58:37;;;;;;;0.50;0.50;;;;;;;16.39;100.00;98833.56;5013031;28;20208;-62
2023/04/17 11:01:10;;;;;;;0.60;0.60;;;;;;;16.38;100.00;98812.06;5030301;28;20205;-63
2023/04/17 11:03:37;;;;;;;0.43;0.43;;;;;;;16.37;100.00;98831.09;5021547;28;20313;-62
2023/04/17 11:06:06;;;;;;;0.57;0.57;;;;;;;16.40;100.00;98830.91;5022998;28;20209;-62
2023/04/17 11:08:33;;;;;;;0.57;0.57;;;;;;;16.43;100.00;98824.72;5025581;28;20752;-63
2023/04/17 11:10:59;;;;;;;0.50;0.50;;;;;;;16.28;100.00;98827.31;5017142;28;20199;-61
2023/04/17 11:13:31;;;;;;;0.90;0.90;;;;;;;16.40;100.00;98825.75;5025093;28;20606;-63
2023/04/17 11:15:58;;;;;;;0.57;0.57;;;;;;;16.34;100.00;98820.94;5017017;28;20206;-62
2023/04/17 11:18:27;;;;;;;0.53;0.53;;;;;;;16.34;100.00;98820.94;5026949;28;20197;-63
2023/04/17 11:20:54;;;;;;;0.70;0.70;;;;;;;16.27;100.00;98823.09;5027436;28;20209;-63
2023/04/17 11:23:21;;;;;;;0.50;0.50;;;;;;;16.28;100.00;98827.31;5031363;28;20212;-64
2023/04/17 11:25:47;;;;;;;0.50;0.50;;;;;;;16.23;100.00;98825.94;5026902;28;20202;-62
2023/04/17 11:28:14;;;;;;;1.23;0.80;;;;;;;16.23;100.00;98818.19;5015175;28;20229;-62